LiveATC.Net - Listen to live air traffic control over the Internet!


ICAO: CYZF  IATA: YZF   Airport: Yellowknife Airport
City: Yellowknife   State/Province: Northwest Territories
Country: Canada   Continent: North America
CYZF METAR Weather: CYZF 270900Z 06013KT 15SM -SN OVC024 M06/M09 A2961 RMK SC8 SLP045
CYZF Flight Activity (FlightAware)

CYZF Gnd/Twr/Center
Feed Status: DOWN
Last heard on: 2020-10-23 09:13:38 (4 days 0 hours 57 minutes ago)
Archive Access: CYZF Gnd/Twr/Center
FacilityFrequency
Edmonton Centre135.800
Yellowknife Ground121.900
Yellowknife Tower118.500

NOTICE

Unauthorized use prohibited. See LiveATC.net Terms of Service


Airport/ARTCC Code
Frequency Search
(e.g., 124.400, 128.75)
Site-wide search
 


Browse Feeds
Top 50 Feeds
Coverage Map
Bad Weather Areas

LiveATC FAQ
Offer LiveATC feed
Contact LiveATC.net
Press Inquiries

LiveATC on iPhone
LiveATC on Android

Windows Phone
Windows 8/10

LiveATC Mobile
(Mobile browser)

ATC Audio Archives
Interesting Recordings

LiveATC Forums


Home Page
About LiveATC.net
Make a Donation
Terms of Use
Privacy Policy

Canadian Air Freqs

AIRMETs/SIGMETs

FAA Airport Status
Nat'l Airspace Status
Arrival Demand Charts


Server Software By:
Icecast.org
Liquidsoap